Time;durP1;ratioP1;P1;durP2;ratioP2;P2;SDS_P1;SDS_P2;PMS_P1;PMS_P2;Temp;Humidity;BMP_temperature;BMP_pressure;BME280_temperature;BME280_humidity;BME280_pressure;Samples;Min_cycle;Max_cycle;Signal;HPM_P1;HPM_P2
2022/05/18 00:00:28;;;;;;;0.57;0.47;;;17.30;99.90;;;;;;5068084;28;20064;-85
2022/05/18 00:03:04;;;;;;;1.45;0.60;;;17.40;99.90;;;;;;5070485;28;20051;-82
2022/05/18 00:05:37;;;;;;;1.25;0.80;;;17.30;99.90;;;;;;5058089;28;20068;-85
2022/05/18 00:08:05;;;;;;;0.88;0.60;;;17.30;99.90;;;;;;5052553;28;20037;-82
2022/05/18 00:10:33;;;;;;;0.95;0.68;;;17.30;99.90;;;;;;5052675;28;20036;-81
2022/05/18 00:12:59;;;;;;;0.88;0.60;;;17.30;99.90;;;;;;5052429;28;20048;-82
2022/05/18 00:15:29;;;;;;;1.17;0.50;;;17.30;99.90;;;;;;5050341;28;20038;-85
2022/05/18 00:17:56;;;;;;;0.82;0.60;;;17.20;99.90;;;;;;5072880;28;20094;-85
2022/05/18 00:20:23;;;;;;;0.63;0.63;;;17.20;99.90;;;;;;5055429;28;20041;-81
2022/05/18 00:22:56;;;;;;;0.40;0.30;;;17.10;99.90;;;;;;5055994;28;20091;-85
2022/05/18 00:25:28;;;;;;;1.05;0.68;;;17.10;99.90;;;;;;5072112;28;20045;-85
2022/05/18 00:27:55;;;;;;;0.80;0.70;;;17.10;99.90;;;;;;5072048;28;20068;-85
2022/05/18 00:30:23;;;;;;;0.60;0.50;;;17.00;99.90;;;;;;5055797;28;20436;-85
2022/05/18 00:32:50;;;;;;;0.65;0.52;;;17.00;99.90;;;;;;5056226;28;20072;-81
2022/05/18 00:35:18;;;;;;;0.63;0.40;;;17.00;99.90;;;;;;5056018;28;20052;-81
2022/05/18 00:37:45;;;;;;;0.45;0.45;;;17.00;99.90;;;;;;5072489;28;20094;-81
2022/05/18 00:40:14;;;;;;;1.10;0.70;;;16.90;99.90;;;;;;5055571;28;20432;-81
2022/05/18 00:42:41;;;;;;;1.00;0.65;;;16.90;99.90;;;;;;5075914;28;20051;-81
2022/05/18 00:45:09;;;;;;;0.93;0.65;;;16.90;99.90;;;;;;5076256;28;20053;-81
2022/05/18 00:47:36;;;;;;;0.65;0.38;;;16.90;99.90;;;;;;5075596;28;20401;-81
2022/05/18 00:50:13;;;;;;;0.90;0.68;;;16.90;99.90;;;;;;5043298;28;20043;-81
2022/05/18 00:52:52;;;;;;;0.88;0.52;;;16.80;99.90;;;;;;5071729;28;20037;-81
2022/05/18 00:55:24;;;;;;;0.70;0.52;;;16.80;99.90;;;;;;5055562;28;20076;-82
2022/05/18 00:58:17;;;;;;;0.75;0.50;;;16.70;99.90;;;;;;5056659;28;20045;-82
2022/05/18 01:00:45;;;;;;;0.65;0.43;;;16.70;99.90;;;;;;5055682;28;20056;-85
2022/05/18 01:03:20;;;;;;;1.02;0.70;;;16.70;99.90;;;;;;5039546;28;20049;-82
2022/05/18 01:05:49;;;;;;;;;;;16.60;99.90;;;;;;5084046;28;20048;-82
2022/05/18 01:08:36;;;;;;;0.50;0.40;;;16.60;99.90;;;;;;5091829;28;19924;-85
2022/05/18 01:11:03;;;;;;;0.77;0.68;;;16.60;99.90;;;;;;5075769;28;20397;-82
2022/05/18 01:13:30;;;;;;;0.30;0.30;;;16.60;99.90;;;;;;5058580;28;20043;-84
2022/05/18 01:15:57;;;;;;;0.35;0.35;;;16.60;99.90;;;;;;5058774;28;20120;-82
2022/05/18 01:18:24;;;;;;;0.47;0.40;;;16.60;99.90;;;;;;5058582;28;20043;-82
2022/05/18 01:20:51;;;;;;;0.38;0.38;;;16.60;99.90;;;;;;5059053;28;20444;-86
2022/05/18 01:23:24;;;;;;;0.77;0.60;;;16.60;99.90;;;;;;5058710;28;20040;-86
2022/05/18 01:25:58;;;;;;;0.38;0.38;;;16.60;99.90;;;;;;5071518;28;20044;-86
2022/05/18 01:28:31;;;;;;;0.30;0.20;;;16.60;99.90;;;;;;5071267;28;20057;-84
2022/05/18 01:30:58;;;;;;;0.85;0.50;;;16.60;99.90;;;;;;5071790;28;20405;-82
2022/05/18 01:33:25;;;;;;;0.52;0.35;;;16.60;99.90;;;;;;5055217;28;20045;-85
2022/05/18 01:35:52;;;;;;;0.43;0.38;;;16.50;99.90;;;;;;5046737;28;20178;-82
2022/05/18 01:38:19;;;;;;;0.35;0.35;;;16.40;99.90;;;;;;5055347;28;20044;-82
2022/05/18 01:41:03;;;;;;;0.40;0.40;;;16.40;99.90;;;;;;5057953;28;20541;-82
2022/05/18 01:43:38;;;;;;;0.63;0.40;;;16.40;99.90;;;;;;5074540;28;20044;-85
2022/05/18 01:46:08;;;;;;;0.50;0.40;;;16.40;99.90;;;;;;5065948;28;20041;-82
2022/05/18 01:48:41;;;;;;;0.30;0.30;;;16.30;99.90;;;;;;5070612;28;20049;-82
2022/05/18 01:51:10;;;;;;;0.20;0.20;;;16.30;99.90;;;;;;5070995;28;20044;-82
2022/05/18 01:53:37;;;;;;;0.30;0.30;;;16.30;99.90;;;;;;5070507;28;20405;-86
2022/05/18 01:56:04;;;;;;;0.17;0.17;;;16.30;99.90;;;;;;5059187;28;20029;-86
2022/05/18 01:58:31;;;;;;;0.52;0.35;;;16.20;99.90;;;;;;5070962;28;20037;-82
2022/05/18 02:01:01;;;;;;;0.30;0.30;;;16.20;99.90;;;;;;5071116;28;20102;-85
2022/05/18 02:03:28;;;;;;;0.20;0.20;;;16.20;99.90;;;;;;5054537;28;20044;-82
2022/05/18 02:05:55;;;;;;;0.52;0.40;;;16.20;99.90;;;;;;5054549;28;20056;-85
2022/05/18 02:08:22;;;;;;;0.20;0.20;;;16.10;99.90;;;;;;5050080;28;20127;-86
2022/05/18 02:10:49;;;;;;;0.20;0.20;;;16.10;99.90;;;;;;5074471;28;20045;-82
2022/05/18 02:13:17;;;;;;;0.43;0.32;;;16.10;99.90;;;;;;5074474;28;20063;-86
2022/05/18 02:15:44;;;;;;;0.50;0.40;;;16.10;99.90;;;;;;5058030;28;20119;-86
2022/05/18 02:18:10;;;;;;;0.22;0.22;;;16.20;99.90;;;;;;5057683;28;20476;-86
2022/05/18 02:20:38;;;;;;;0.30;0.30;;;16.10;99.90;;;;;;5073915;28;20048;-85
2022/05/18 02:23:05;;;;;;;0.40;0.40;;;16.10;99.90;;;;;;5074695;28;20075;-82
2022/05/18 02:25:33;;;;;;;0.68;0.50;;;16.10;99.90;;;;;;5057277;28;20592;-82
2022/05/18 02:28:00;;;;;;;0.63;0.30;;;16.20;99.90;;;;;;5073769;28;20075;-85
2022/05/18 02:30:27;;;;;;;0.68;0.40;;;16.10;99.90;;;;;;5057520;28;20040;-81
2022/05/18 02:32:53;;;;;;;0.43;0.30;;;16.10;99.90;;;;;;5057144;28;20068;-82
2022/05/18 02:35:20;;;;;;;0.45;0.20;;;16.00;99.90;;;;;;5073936;28;20079;-86
2022/05/18 02:37:47;;;;;;;0.15;0.15;;;16.00;99.90;;;;;;5056936;28;20564;-82
2022/05/18 02:40:14;;;;;;;0.20;0.20;;;16.00;99.90;;;;;;5074060;28;20083;-85
2022/05/18 02:42:40;;;;;;;1.83;0.43;;;15.90;99.90;;;;;;5073677;28;20044;-82
2022/05/18 02:45:08;;;;;;;0.38;0.32;;;15.90;99.90;;;;;;5056775;28;20040;-82
2022/05/18 02:47:35;;;;;;;0.70;0.50;;;15.80;99.90;;;;;;5053332;28;20122;-85
2022/05/18 02:50:01;;;;;;;0.45;0.20;;;15.70;99.90;;;;;;5053563;28;20037;-82
2022/05/18 02:52:28;;;;;;;0.20;0.20;;;15.70;99.90;;;;;;5053491;28;20037;-86
2022/05/18 02:57:40;;;;;;;0.37;0.27;;;15.70;99.90;;;;;;5072154;28;20049;-85
2022/05/18 03:00:07;;;;;;;0.28;0.28;;;15.70;99.90;;;;;;5021508;28;20037;-82
2022/05/18 03:02:35;;;;;;;0.80;0.43;;;15.70;99.90;;;;;;5037475;28;20212;-86
2022/05/18 03:05:02;;;;;;;0.52;0.38;;;15.60;99.90;;;;;;5069071;28;20041;-86
2022/05/18 03:07:29;;;;;;;0.35;0.30;;;15.60;99.90;;;;;;5056055;28;20033;-82
2022/05/18 03:09:56;;;;;;;0.88;0.28;;;15.60;99.90;;;;;;5053183;28;20815;-86
2022/05/18 03:12:23;;;;;;;0.70;0.55;;;15.60;99.90;;;;;;5053318;28;20101;-85
2022/05/18 03:14:49;;;;;;;0.55;0.35;;;15.50;99.90;;;;;;5052944;28;20037;-86
2022/05/18 03:17:16;;;;;;;0.28;0.22;;;15.50;99.90;;;;;;5036808;28;20084;-82
2022/05/18 03:19:43;;;;;;;0.20;0.20;;;15.50;99.90;;;;;;5052470;28;20044;-86
2022/05/18 03:24:54;;;;;;;0.20;0.15;;;15.40;99.90;;;;;;5055636;28;20037;-86
2022/05/18 03:27:21;;;;;;;0.13;0.13;;;15.50;99.90;;;;;;5041292;28;20514;-84
2022/05/18 03:29:48;;;;;;;0.57;0.40;;;15.40;99.90;;;;;;5052939;28;20083;-86
2022/05/18 03:32:15;;;;;;;0.32;0.20;;;15.40;99.90;;;;;;5053063;28;20819;-86
2022/05/18 03:34:41;;;;;;;0.63;0.40;;;15.40;99.90;;;;;;5052594;28;20040;-85
2022/05/18 03:37:08;;;;;;;0.47;0.30;;;15.40;99.90;;;;;;5056529;28;20431;-86
2022/05/18 03:39:35;;;;;;;0.30;0.30;;;15.40;99.90;;;;;;5056110;28;20409;-82
2022/05/18 03:42:02;;;;;;;0.45;0.35;;;15.40;99.90;;;;;;5056462;28;20059;-85
2022/05/18 03:44:28;;;;;;;0.20;0.20;;;15.30;99.90;;;;;;5056450;28;20097;-82
2022/05/18 03:46:55;;;;;;;0.22;0.22;;;15.30;99.90;;;;;;5072465;28;20520;-83
2022/05/18 03:49:22;;;;;;;0.28;0.20;;;15.30;99.90;;;;;;5052427;28;20386;-82
2022/05/18 03:51:49;;;;;;;0.57;0.30;;;15.20;99.90;;;;;;5036051;28;20065;-82
2022/05/18 03:54:17;;;;;;;0.20;0.20;;;15.30;99.90;;;;;;5052999;28;20041;-86
2022/05/18 03:56:43;;;;;;;0.20;0.20;;;15.30;99.90;;;;;;5068858;28;20048;-82
2022/05/18 03:59:10;;;;;;;0.10;0.10;;;15.20;99.90;;;;;;5052578;28;20091;-82
2022/05/18 04:01:37;;;;;;;0.70;0.55;;;15.20;99.90;;;;;;5052670;28;20072;-83
2022/05/18 04:04:04;;;;;;;0.10;0.10;;;15.20;99.90;;;;;;5052512;28;20102;-86
2022/05/18 04:06:30;;;;;;;0.60;0.40;;;15.20;99.90;;;;;;5052593;28;20546;-82
2022/05/18 04:08:57;;;;;;;0.25;0.25;;;15.20;99.90;;;;;;5052626;28;20037;-82
2022/05/18 04:11:24;;;;;;;0.47;0.32;;;15.20;99.90;;;;;;5035946;28;20501;-86
2022/05/18 04:13:51;;;;;;;0.43;0.30;;;15.20;99.90;;;;;;5052517;28;20070;-82
2022/05/18 04:16:18;;;;;;;0.30;0.30;;;15.20;99.90;;;;;;5054478;28;20101;-85
2022/05/18 04:18:44;;;;;;;0.25;0.22;;;15.20;99.90;;;;;;5054503;28;20565;-86
2022/05/18 04:21:11;;;;;;;0.47;0.32;;;15.20;99.90;;;;;;5056339;28;20524;-85
2022/05/18 04:23:39;;;;;;;0.25;0.25;;;15.20;99.90;;;;;;5056398;28;20052;-85
2022/05/18 04:26:07;;;;;;;0.30;0.30;;;15.10;99.90;;;;;;5056057;28;20037;-82
2022/05/18 04:28:35;;;;;;;0.35;0.30;;;15.10;99.90;;;;;;5047435;28;20052;-85
2022/05/18 04:31:02;;;;;;;0.38;0.30;;;15.10;99.90;;;;;;5063783;28;20132;-83
2022/05/18 04:33:29;;;;;;;0.10;0.10;;;15.10;99.90;;;;;;5072762;28;20041;-86
2022/05/18 04:35:56;;;;;;;0.20;0.20;;;15.10;99.90;;;;;;5055779;28;20029;-83
2022/05/18 04:38:23;;;;;;;0.15;0.15;;;15.20;99.90;;;;;;5023680;28;20179;-86
2022/05/18 04:40:50;;;;;;;0.47;0.22;;;15.20;99.90;;;;;;5070937;28;20390;-85
2022/05/18 04:43:18;;;;;;;0.30;0.22;;;15.30;99.90;;;;;;5059674;28;20047;-82
2022/05/18 04:45:47;;;;;;;0.60;0.40;;;15.30;99.90;;;;;;5059777;28;20082;-82
2022/05/18 04:48:17;;;;;;;0.50;0.40;;;15.30;99.90;;;;;;5059387;28;20484;-82
2022/05/18 04:50:45;;;;;;;0.70;0.30;;;15.40;99.90;;;;;;5056226;28;20033;-85
2022/05/18 04:53:12;;;;;;;0.30;0.28;;;15.40;99.90;;;;;;5055354;28;20041;-82
2022/05/18 04:55:39;;;;;;;1.00;0.40;;;15.40;99.90;;;;;;5039409;28;20461;-82
2022/05/18 04:58:05;;;;;;;0.30;0.30;;;15.50;99.90;;;;;;5039050;28;20087;-82
2022/05/18 05:00:32;;;;;;;1.00;0.57;;;15.50;99.90;;;;;;5049145;28;20046;-86
2022/05/18 05:03:00;;;;;;;0.20;0.20;;;15.60;99.90;;;;;;5059145;28;20134;-86
2022/05/18 05:05:27;;;;;;;0.20;0.20;;;15.70;99.90;;;;;;5059339;28;20044;-82
2022/05/18 05:07:54;;;;;;;0.60;0.38;;;15.70;99.90;;;;;;5058675;28;20039;-85
2022/05/18 05:10:22;;;;;;;0.57;0.40;;;15.70;99.90;;;;;;5075708;28;20033;-82
2022/05/18 05:12:49;;;;;;;0.47;0.47;;;15.80;99.90;;;;;;5072071;28;20033;-83
2022/05/18 05:15:16;;;;;;;0.45;0.32;;;15.80;99.90;;;;;;5051588;28;20040;-83
2022/05/18 05:17:43;;;;;;;0.40;0.30;;;15.90;99.90;;;;;;5058769;28;20039;-82
2022/05/18 05:20:11;;;;;;;0.38;0.25;;;15.90;99.90;;;;;;5058980;28;20033;-85
2022/05/18 05:22:37;;;;;;;0.30;0.30;;;15.90;99.90;;;;;;5064328;28;20509;-83
2022/05/18 05:25:04;;;;;;;0.45;0.35;;;16.00;99.90;;;;;;5038602;28;20037;-83
2022/05/18 05:27:31;;;;;;;0.40;0.20;;;16.10;99.90;;;;;;5037691;28;20057;-86
2022/05/18 05:29:58;;;;;;;0.28;0.25;;;16.20;99.90;;;;;;5054625;28;20171;-86
2022/05/18 05:32:25;;;;;;;0.20;0.20;;;16.20;99.90;;;;;;5038849;28;20041;-82
2022/05/18 05:34:53;;;;;;;0.63;0.40;;;16.20;99.90;;;;;;5055166;28;20041;-83
2022/05/18 05:37:19;;;;;;;0.22;0.22;;;16.30;99.90;;;;;;5073520;28;20045;-86
2022/05/18 05:39:46;;;;;;;0.20;0.20;;;16.30;99.90;;;;;;5059731;28;20391;-82
2022/05/18 05:42:13;;;;;;;0.30;0.30;;;16.40;99.90;;;;;;5053982;28;20047;-84
2022/05/18 05:44:40;;;;;;;0.68;0.38;;;16.40;99.90;;;;;;5054877;28;20076;-83
2022/05/18 05:47:08;;;;;;;0.55;0.43;;;16.50;99.90;;;;;;5056619;28;20041;-86
2022/05/18 05:49:35;;;;;;;0.30;0.30;;;16.60;99.90;;;;;;5055306;28;20037;-83
2022/05/18 05:52:01;;;;;;;0.20;0.20;;;16.60;99.90;;;;;;5054487;28;20045;-86
2022/05/18 05:54:28;;;;;;;0.65;0.40;;;16.60;99.90;;;;;;5033608;28;20037;-87
2022/05/18 05:56:55;;;;;;;0.43;0.40;;;16.70;99.90;;;;;;5071415;28;20041;-87
2022/05/18 05:59:22;;;;;;;0.20;0.20;;;16.80;99.90;;;;;;5039081;28;20080;-86
2022/05/18 06:01:49;;;;;;;0.25;0.22;;;16.80;99.90;;;;;;5087932;28;20080;-86
2022/05/18 06:04:17;;;;;;;0.68;0.40;;;17.00;99.90;;;;;;5053523;28;20045;-83
2022/05/18 06:06:44;;;;;;;0.20;0.20;;;17.00;99.90;;;;;;5038399;28;20125;-86
2022/05/18 06:09:11;;;;;;;0.73;0.32;;;17.00;99.90;;;;;;5064579;28;20076;-86
2022/05/18 06:11:38;;;;;;;0.28;0.25;;;17.10;99.90;;;;;;5043726;28;20043;-83
2022/05/18 06:14:05;;;;;;;0.57;0.40;;;17.20;99.90;;;;;;5071406;28;20036;-87
2022/05/18 06:16:32;;;;;;;0.25;0.25;;;17.30;99.90;;;;;;5054573;28;20513;-86
2022/05/18 06:18:59;;;;;;;0.43;0.40;;;17.40;99.90;;;;;;5049187;28;20029;-87
2022/05/18 06:21:27;;;;;;;0.70;0.60;;;17.60;99.90;;;;;;5055908;28;20523;-87
2022/05/18 06:23:54;;;;;;;0.65;0.45;;;17.70;99.90;;;;;;5054322;28;20410;-83
2022/05/18 06:26:21;;;;;;;0.50;0.30;;;17.70;99.90;;;;;;5044349;28;20044;-86
2022/05/18 06:28:48;;;;;;;0.35;0.30;;;17.80;99.90;;;;;;5052824;28;20049;-83
2022/05/18 06:31:15;;;;;;;0.57;0.40;;;17.90;99.90;;;;;;5056359;28;20059;-83
2022/05/18 06:33:41;;;;;;;0.40;0.30;;;18.00;99.90;;;;;;5057860;28;20394;-82
2022/05/18 06:36:08;;;;;;;0.38;0.30;;;18.10;99.90;;;;;;5053633;28;20059;-83
2022/05/18 06:38:35;;;;;;;0.73;0.50;;;18.10;99.90;;;;;;5037645;28;20131;-83
2022/05/18 06:43:52;;;;;;;;;;;18.30;99.90;;;;;;5070934;28;20049;-87
2022/05/18 06:46:19;;;;;;;0.70;0.57;;;18.50;99.90;;;;;;5053632;28;20019;-83
2022/05/18 06:48:46;;;;;;;0.28;0.25;;;18.50;99.90;;;;;;5037824;28;20037;-82
2022/05/18 06:51:17;;;;;;;0.30;0.30;;;18.60;99.90;;;;;;5053453;28;20409;-80
2022/05/18 06:53:44;;;;;;;0.50;0.30;;;18.70;99.90;;;;;;5053875;28;20048;-86
2022/05/18 06:56:11;;;;;;;0.85;0.52;;;18.80;99.90;;;;;;5037525;28;20037;-82
2022/05/18 06:58:37;;;;;;;0.68;0.40;;;18.90;99.90;;;;;;5052986;28;20090;-82
2022/05/18 07:01:07;;;;;;;0.47;0.45;;;19.00;99.90;;;;;;5047513;28;20099;-81
2022/05/18 07:03:34;;;;;;;0.98;0.40;;;19.10;99.90;;;;;;5053308;28;20525;-81
2022/05/18 07:06:02;;;;;;;0.65;0.50;;;19.20;99.90;;;;;;5044718;28;20060;-82
2022/05/18 07:08:29;;;;;;;1.08;0.70;;;19.20;99.90;;;;;;5088554;28;20044;-82
2022/05/18 07:10:56;;;;;;;0.77;0.47;;;19.30;99.90;;;;;;5062038;28;20119;-81
2022/05/18 07:13:23;;;;;;;1.08;0.57;;;19.40;99.90;;;;;;5056328;28;20044;-81
2022/05/18 07:15:49;;;;;;;0.75;0.55;;;19.50;99.90;;;;;;5074524;28;20570;-84
2022/05/18 07:18:16;;;;;;;0.75;0.47;;;19.60;99.90;;;;;;5056129;28;20044;-83
2022/05/18 07:20:43;;;;;;;0.57;0.52;;;19.60;99.90;;;;;;5056757;28;20066;-82
2022/05/18 07:23:10;;;;;;;0.88;0.57;;;19.70;99.90;;;;;;5056094;28;20440;-82
2022/05/18 07:25:37;;;;;;;0.20;0.20;;;19.80;99.90;;;;;;5073324;28;20044;-83
2022/05/18 07:28:04;;;;;;;0.63;0.50;;;20.00;99.90;;;;;;5043659;28;20059;-84
2022/05/18 07:30:31;;;;;;;1.00;0.70;;;20.00;99.90;;;;;;5014056;28;20040;-85
2022/05/18 07:32:59;;;;;;;0.43;0.40;;;20.10;99.90;;;;;;5027713;28;20038;-84
2022/05/18 07:35:28;;;;;;;0.75;0.45;;;20.20;99.90;;;;;;5047888;28;20445;-84
2022/05/18 07:37:56;;;;;;;0.63;0.60;;;20.40;99.90;;;;;;5033388;28;20075;-85
2022/05/18 07:40:23;;;;;;;0.77;0.52;;;20.40;99.90;;;;;;5037387;28;20110;-85
2022/05/18 07:42:54;;;;;;;0.63;0.60;;;20.50;99.90;;;;;;5016201;28;20049;-85
2022/05/18 07:45:25;;;;;;;1.55;0.85;;;20.70;99.90;;;;;;5032601;28;20052;-84
2022/05/18 07:47:54;;;;;;;0.55;0.50;;;20.70;99.90;;;;;;5068477;28;20049;-85
2022/05/18 07:50:25;;;;;;;1.13;0.73;;;20.80;99.90;;;;;;5050696;28;20040;-84
2022/05/18 07:52:57;;;;;;;0.60;0.50;;;21.00;99.90;;;;;;5035125;28;20033;-85
2022/05/18 07:55:24;;;;;;;0.75;0.50;;;21.00;99.90;;;;;;5017349;28;20033;-85
2022/05/18 07:57:50;;;;;;;1.02;0.70;;;21.20;99.90;;;;;;5031871;28;20095;-85
2022/05/18 08:00:19;;;;;;;0.93;0.65;;;21.20;99.90;;;;;;5035330;28;20041;-84
2022/05/18 08:02:45;;;;;;;0.65;0.45;;;21.30;99.90;;;;;;5035835;28;20045;-84
2022/05/18 08:05:12;;;;;;;1.17;0.73;;;21.40;99.90;;;;;;5051143;28;20123;-84
2022/05/18 08:07:45;;;;;;;1.27;0.80;;;21.60;99.90;;;;;;5035301;28;20061;-84
2022/05/18 08:15:49;;;;;;;1.20;0.70;;;21.90;99.90;;;;;;5041096;28;20041;-84
2022/05/18 08:18:17;;;;;;;0.88;0.60;;;22.00;99.90;;;;;;5051518;28;20059;-85
2022/05/18 08:20:46;;;;;;;0.93;0.60;;;22.10;99.90;;;;;;5035578;28;20452;-84
2022/05/18 08:23:13;;;;;;;1.45;0.80;;;22.20;99.90;;;;;;5051299;28;20040;-84
2022/05/18 08:25:40;;;;;;;1.42;0.90;;;22.30;99.90;;;;;;5052227;28;20041;-84
2022/05/18 08:28:08;;;;;;;1.08;0.68;;;22.30;99.90;;;;;;5011253;28;20053;-84
2022/05/18 08:30:34;;;;;;;0.90;0.68;;;22.40;99.90;;;;;;5067036;28;20468;-84
2022/05/18 08:33:02;;;;;;;1.13;0.75;;;22.50;99.90;;;;;;5038941;28;20071;-84
2022/05/18 08:35:30;;;;;;;0.90;0.60;;;22.60;99.90;;;;;;5071617;28;20028;-84
2022/05/18 08:37:59;;;;;;;1.35;0.82;;;22.80;99.90;;;;;;5076926;28;20045;-84
2022/05/18 08:40:29;;;;;;;1.33;0.77;;;22.90;99.90;;;;;;5071401;28;20094;-84
2022/05/18 08:42:57;;;;;;;0.95;0.45;;;23.00;99.90;;;;;;5070932;28;20040;-85
2022/05/18 08:45:29;;;;;;;1.00;0.75;;;23.10;99.90;;;;;;5071700;28;20044;-84
2022/05/18 08:48:45;;;;;;;1.52;0.85;;;23.30;99.90;;;;;;5087851;28;20382;-84
2022/05/18 08:51:32;;;;;;;1.10;0.70;;;23.50;99.90;;;;;;5065497;28;20087;-84
2022/05/18 08:54:27;;;;;;;0.75;0.60;;;23.60;99.90;;;;;;5070850;28;20098;-84
2022/05/18 08:56:58;;;;;;;1.38;0.90;;;23.70;99.90;;;;;;5071705;28;20048;-84
2022/05/18 08:59:33;;;;;;;0.88;0.60;;;23.80;99.90;;;;;;5070140;28;20037;-84
2022/05/18 09:02:09;;;;;;;1.00;0.52;;;23.90;99.90;;;;;;5068324;28;20076;-84
2022/05/18 09:04:48;;;;;;;0.75;0.60;;;24.10;99.90;;;;;;5055266;28;20112;-84
2022/05/18 09:07:19;;;;;;;0.60;0.50;;;24.30;99.90;;;;;;5054892;28;20045;-85
2022/05/18 09:10:16;;;;;;;0.77;0.73;;;24.40;99.90;;;;;;5057623;28;20102;-85
2022/05/18 09:12:45;;;;;;;1.23;0.73;;;24.40;99.90;;;;;;5071922;28;20072;-85
2022/05/18 09:15:15;;;;;;;0.98;0.60;;;24.50;99.90;;;;;;5071519;28;20037;-85
2022/05/18 09:18:31;;;;;;;1.40;0.70;;;24.60;99.90;;;;;;5071667;28;20094;-85
2022/05/18 09:21:04;;;;;;;0.95;0.50;;;24.80;99.90;;;;;;5010901;28;20055;-85
2022/05/18 09:23:43;;;;;;;0.35;0.35;;;24.90;99.90;;;;;;5052059;28;20056;-84
2022/05/18 09:26:13;;;;;;;0.55;0.50;;;25.00;99.90;;;;;;5075054;28;20036;-85
2022/05/18 09:28:52;;;;;;;0.52;0.30;;;25.20;99.90;;;;;;5061229;28;20056;-85
2022/05/18 09:31:43;;;;;;;1.20;0.60;;;25.20;99.90;;;;;;5071256;28;20517;-85
2022/05/18 09:34:36;;;;;;;0.73;0.60;;;25.30;99.90;;;;;;5054873;28;20037;-87
2022/05/18 09:37:10;;;;;;;0.82;0.60;;;25.40;99.90;;;;;;5069055;28;20037;-89
2022/05/18 09:39:46;;;;;;;0.77;0.68;;;25.60;99.90;;;;;;5067835;28;20555;-87
2022/05/18 09:42:19;;;;;;;0.60;0.47;;;25.70;99.90;;;;;;5035441;28;20075;-87
2022/05/18 09:45:16;;;;;;;0.43;0.40;;;25.70;99.90;;;;;;5044264;28;20048;-87
2022/05/18 09:47:50;;;;;;;0.50;0.47;;;25.80;99.90;;;;;;5036222;28;20045;-85
2022/05/18 09:50:17;;;;;;;0.88;0.60;;;25.90;99.90;;;;;;5040216;28;20037;-87
2022/05/18 09:52:45;;;;;;;0.40;0.40;;;26.10;99.90;;;;;;5021402;28;20405;-85
2022/05/18 09:55:17;;;;;;;0.52;0.40;;;26.10;99.90;;;;;;5050971;28;20076;-86
2022/05/18 09:57:52;;;;;;;1.10;0.70;;;26.20;99.90;;;;;;5048441;28;20121;-88
2022/05/18 10:00:23;;;;;;;0.50;0.40;;;26.20;99.90;;;;;;5047551;28;20091;-86
2022/05/18 10:08:36;;;;;;;0.38;0.38;;;26.50;99.90;;;;;;5050736;28;20048;-85
2022/05/18 10:11:12;;;;;;;0.77;0.52;;;26.60;99.90;;;;;;5034338;28;20129;-87
2022/05/18 10:13:52;;;;;;;0.40;0.40;;;26.70;99.90;;;;;;5068877;28;20037;-87
2022/05/18 10:16:42;;;;;;;0.63;0.50;;;26.80;99.90;;;;;;5054524;28;20087;-85
2022/05/18 10:19:32;;;;;;;0.57;0.50;;;26.80;99.90;;;;;;5046536;28;20387;-87
2022/05/18 10:22:03;;;;;;;0.65;0.57;;;26.90;99.90;;;;;;5050705;28;20402;-86
2022/05/18 10:25:10;;;;;;;1.17;0.52;;;27.00;99.90;;;;;;5049708;28;20176;-87
2022/05/18 10:27:44;;;;;;;0.50;0.50;;;27.00;99.90;;;;;;4989400;28;20058;-87
2022/05/18 10:30:18;;;;;;;0.43;0.35;;;27.10;99.90;;;;;;5047723;28;20553;-87
2022/05/18 10:33:03;;;;;;;0.50;0.50;;;27.20;99.60;;;;;;5054154;28;20040;-86
2022/05/18 10:35:47;;;;;;;0.47;0.40;;;27.30;99.20;;;;;;5059286;28;20036;-88
2022/05/18 10:38:20;;;;;;;0.57;0.50;;;27.40;99.50;;;;;;5070444;28;20048;-88
2022/05/18 10:40:48;;;;;;;0.80;0.50;;;27.50;99.90;;;;;;5053612;28;20037;-85
2022/05/18 10:43:31;;;;;;;0.57;0.50;;;27.70;99.90;;;;;;5054367;28;20497;-87
2022/05/18 10:46:11;;;;;;;1.40;0.68;;;27.80;99.90;;;;;;5054608;28;20076;-88
2022/05/18 10:48:42;;;;;;;0.30;0.30;;;27.90;99.00;;;;;;5053435;28;20040;-85
2022/05/18 10:51:11;;;;;;;0.55;0.50;;;28.00;99.80;;;;;;5070979;28;20035;-87
2022/05/18 10:53:41;;;;;;;0.65;0.60;;;28.00;99.90;;;;;;5053465;28;20441;-85
2022/05/18 10:56:25;;;;;;;0.50;0.40;;;28.00;99.60;;;;;;5053566;28;20120;-86
2022/05/18 10:59:21;;;;;;;0.75;0.43;;;28.20;98.70;;;;;;5064164;28;20509;-87
2022/05/18 11:02:10;;;;;;;1.40;0.68;;;28.20;97.90;;;;;;5062935;28;20037;-86
2022/05/18 11:04:58;;;;;;;1.20;0.73;;;28.20;97.40;;;;;;5073366;28;20127;-86
2022/05/18 11:07:28;;;;;;;0.80;0.50;;;28.30;98.00;;;;;;5068447;28;20052;-87
2022/05/18 11:09:56;;;;;;;0.55;0.50;;;28.40;98.40;;;;;;5058179;28;20111;-85
2022/05/18 11:12:48;;;;;;;0.82;0.57;;;28.40;97.70;;;;;;5070141;28;20033;-88
2022/05/18 11:16:03;;;;;;;0.60;0.40;;;28.40;99.00;;;;;;5071145;28;20044;-86
2022/05/18 11:18:44;;;;;;;0.90;0.52;;;28.50;97.40;;;;;;5040960;28;20089;-87
2022/05/18 11:21:33;;;;;;;0.82;0.52;;;28.50;96.50;;;;;;5067534;28;20044;-86
2022/05/18 11:24:16;;;;;;;0.60;0.60;;;28.60;98.10;;;;;;5039846;28;20045;-88
2022/05/18 11:27:13;;;;;;;0.70;0.55;;;28.40;96.70;;;;;;5052602;28;20505;-87
2022/05/18 11:29:50;;;;;;;1.23;0.60;;;28.40;96.90;;;;;;5053172;28;20057;-87
2022/05/18 11:32:32;;;;;;;0.40;0.40;;;28.50;98.10;;;;;;5053238;28;20040;-87
2022/05/18 11:35:19;;;;;;;0.38;0.38;;;28.30;96.60;;;;;;5053664;28;20047;-87
2022/05/18 11:37:52;;;;;;;0.47;0.43;;;28.00;97.10;;;;;;5053013;28;20077;-87
2022/05/18 11:40:50;;;;;;;0.55;0.50;;;27.90;97.50;;;;;;5069706;28;20099;-87
2022/05/18 11:43:55;;;;;;;0.60;0.52;;;27.90;98.20;;;;;;5053385;28;20041;-87
2022/05/18 11:46:45;;;;;;;0.40;0.40;;;28.10;97.80;;;;;;5053540;28;20045;-88
2022/05/18 11:49:15;;;;;;;0.60;0.50;;;28.10;96.30;;;;;;5053260;28;20037;-87
2022/05/18 11:52:12;;;;;;;0.70;0.70;;;28.30;98.40;;;;;;5059361;28;20077;-87
2022/05/18 11:55:15;;;;;;;0.75;0.65;;;28.40;97.60;;;;;;5069644;28;20049;-87
2022/05/18 11:58:43;;;;;;;0.95;0.68;;;28.20;97.40;;;;;;5070501;28;20044;-87
2022/05/18 12:01:30;;;;;;;1.02;0.65;;;28.10;97.60;;;;;;5073066;28;20121;-88
2022/05/18 12:04:08;;;;;;;0.57;0.50;;;27.80;96.60;;;;;;5072958;28;20692;-86
2022/05/18 12:06:44;;;;;;;1.00;0.57;;;28.00;98.00;;;;;;5073160;28;20048;-87
2022/05/18 12:09:32;;;;;;;1.67;0.80;;;28.20;97.50;;;;;;5073249;28;20036;-88
2022/05/18 12:12:08;;;;;;;0.60;0.60;;;28.40;97.40;;;;;;5072892;28;20072;-88
2022/05/18 12:14:50;;;;;;;0.52;0.47;;;28.60;97.30;;;;;;5072948;28;20133;-87
2022/05/18 12:17:28;;;;;;;0.82;0.70;;;28.50;97.30;;;;;;5072563;28;20620;-88
2022/05/18 12:20:13;;;;;;;0.52;0.50;;;28.30;97.70;;;;;;5089547;28;20036;-87
2022/05/18 12:22:43;;;;;;;0.77;0.50;;;28.50;96.40;;;;;;5072309;28;20048;-87
2022/05/18 12:25:14;;;;;;;0.95;0.60;;;28.70;97.90;;;;;;5073026;28;20079;-88
2022/05/18 12:27:41;;;;;;;0.98;0.60;;;28.70;96.60;;;;;;5072523;28;20488;-86
2022/05/18 12:30:10;;;;;;;1.48;0.52;;;28.70;96.30;;;;;;5056965;28;20052;-87
2022/05/18 12:32:38;;;;;;;1.17;0.68;;;28.70;97.20;;;;;;5072835;28;20036;-88
2022/05/18 12:35:32;;;;;;;0.80;0.60;;;28.70;97.00;;;;;;5039980;28;20489;-88
2022/05/18 12:38:04;;;;;;;0.57;0.38;;;28.60;97.00;;;;;;5075222;28;20070;-87
2022/05/18 12:40:43;;;;;;;0.52;0.47;;;28.80;97.40;;;;;;5076677;28;20059;-87
2022/05/18 12:43:33;;;;;;;0.80;0.60;;;28.70;96.80;;;;;;5093058;28;20131;-87
2022/05/18 12:46:04;;;;;;;0.88;0.55;;;28.40;96.30;;;;;;5076608;28;20108;-87
2022/05/18 12:48:38;;;;;;;0.77;0.55;;;28.30;96.80;;;;;;5076597;28;20060;-88
2022/05/18 12:51:11;;;;;;;0.63;0.50;;;28.40;97.90;;;;;;5076134;28;20072;-88
2022/05/18 12:53:44;;;;;;;0.40;0.40;;;28.50;96.30;;;;;;5076342;28;20036;-87
2022/05/18 12:56:21;;;;;;;0.75;0.60;;;28.40;97.20;;;;;;5073109;28;20068;-88
2022/05/18 12:58:57;;;;;;;0.80;0.65;;;28.40;95.70;;;;;;5076061;28;20119;-87
2022/05/18 13:01:29;;;;;;;0.40;0.40;;;28.20;96.40;;;;;;5075934;28;20051;-87
2022/05/18 13:03:57;;;;;;;1.08;0.52;;;28.10;97.70;;;;;;5075849;28;20048;-87
2022/05/18 13:06:36;;;;;;;0.77;0.50;;;28.00;97.10;;;;;;5075734;28;20489;-87
2022/05/18 13:09:22;;;;;;;0.50;0.43;;;27.90;97.50;;;;;;5075410;28;20048;-87
2022/05/18 13:11:54;;;;;;;0.40;0.40;;;27.90;97.70;;;;;;5075677;28;20040;-88
2022/05/18 13:15:03;;;;;;;0.50;0.40;;;27.80;96.30;;;;;;5075564;28;20047;-86
2022/05/18 13:18:00;;;;;;;0.60;0.50;;;27.80;96.70;;;;;;5075413;28;20174;-86
2022/05/18 13:20:30;;;;;;;0.70;0.50;;;27.60;96.60;;;;;;5075737;28;20048;-87
2022/05/18 13:23:12;;;;;;;0.98;0.55;;;27.50;96.80;;;;;;5076195;28;20136;-87
2022/05/18 13:25:42;;;;;;;0.35;0.35;;;27.50;97.70;;;;;;5075774;28;20068;-88
2022/05/18 13:28:12;;;;;;;0.98;0.60;;;27.40;97.70;;;;;;5075125;28;20045;-87
2022/05/18 13:30:44;;;;;;;0.50;0.50;;;27.30;96.60;;;;;;5075458;28;20131;-87
2022/05/18 13:33:12;;;;;;;0.40;0.40;;;27.20;96.50;;;;;;5075482;28;20029;-87